sensor_id;sensor_type;location;lat;lon;timestamp;P1;durP1;ratioP1;P2;durP2;ratioP2
34196;SDS011;36594;45.192;5.722;2023-02-01T00:01:07;2.22;;;2.12;;
34196;SDS011;36594;45.192;5.722;2023-02-01T00:03:56;2.20;;;2.10;;
34196;SDS011;36594;45.192;5.722;2023-02-01T00:06:45;2.30;;;2.13;;
34196;SDS011;36594;45.192;5.722;2023-02-01T00:09:34;2.03;;;1.90;;
34196;SDS011;36594;45.192;5.722;2023-02-01T00:12:22;2.03;;;1.93;;
34196;SDS011;36594;45.192;5.722;2023-02-01T00:15:10;1.80;;;1.70;;
34196;SDS011;36594;45.192;5.722;2023-02-01T00:17:58;2.25;;;2.10;;
34196;SDS011;36594;45.192;5.722;2023-02-01T00:20:47;1.80;;;1.70;;
34196;SDS011;36594;45.192;5.722;2023-02-01T00:23:35;2.17;;;2.08;;
34196;SDS011;36594;45.192;5.722;2023-02-01T00:26:27;2.00;;;1.90;;
34196;SDS011;36594;45.192;5.722;2023-02-01T00:29:17;2.08;;;1.80;;
34196;SDS011;36594;45.192;5.722;2023-02-01T00:32:07;2.20;;;2.00;;
34196;SDS011;36594;45.192;5.722;2023-02-01T00:34:56;2.30;;;2.20;;
34196;SDS011;36594;45.192;5.722;2023-02-01T00:37:44;2.00;;;1.90;;
34196;SDS011;36594;45.192;5.722;2023-02-01T00:40:33;1.97;;;1.87;;
34196;SDS011;36594;45.192;5.722;2023-02-01T00:43:21;2.00;;;1.90;;
34196;SDS011;36594;45.192;5.722;2023-02-01T00:46:10;2.00;;;1.90;;
34196;SDS011;36594;45.192;5.722;2023-02-01T00:48:59;2.10;;;1.90;;
34196;SDS011;36594;45.192;5.722;2023-02-01T00:51:47;1.87;;;1.77;;
34196;SDS011;36594;45.192;5.722;2023-02-01T00:54:36;1.80;;;1.70;;
34196;SDS011;36594;45.192;5.722;2023-02-01T00:57:24;2.00;;;1.90;;
34196;SDS011;36594;45.192;5.722;2023-02-01T01:00:13;2.05;;;1.90;;
34196;SDS011;36594;45.192;5.722;2023-02-01T01:03:02;2.12;;;2.02;;
34196;SDS011;36594;45.192;5.722;2023-02-01T01:05:56;1.90;;;1.80;;
34196;SDS011;36594;45.192;5.722;2023-02-01T01:08:44;1.90;;;1.80;;
34196;SDS011;36594;45.192;5.722;2023-02-01T01:11:34;2.17;;;1.97;;
34196;SDS011;36594;45.192;5.722;2023-02-01T01:14:25;1.90;;;1.80;;
34196;SDS011;36594;45.192;5.722;2023-02-01T01:17:13;1.90;;;1.80;;
34196;SDS011;36594;45.192;5.722;2023-02-01T01:20:02;1.90;;;1.80;;
34196;SDS011;36594;45.192;5.722;2023-02-01T01:22:52;1.90;;;1.80;;
34196;SDS011;36594;45.192;5.722;2023-02-01T01:25:40;2.47;;;1.77;;
34196;SDS011;36594;45.192;5.722;2023-02-01T01:28:29;2.00;;;1.90;;
34196;SDS011;36594;45.192;5.722;2023-02-01T01:31:18;1.87;;;1.77;;
34196;SDS011;36594;45.192;5.722;2023-02-01T01:34:08;1.90;;;1.80;;
34196;SDS011;36594;45.192;5.722;2023-02-01T01:36:57;1.85;;;1.75;;
34196;SDS011;36594;45.192;5.722;2023-02-01T01:39:45;2.20;;;2.00;;
34196;SDS011;36594;45.192;5.722;2023-02-01T01:42:40;1.90;;;1.80;;
34196;SDS011;36594;45.192;5.722;2023-02-01T01:45:32;2.00;;;1.90;;
34196;SDS011;36594;45.192;5.722;2023-02-01T01:48:26;1.92;;;1.82;;
34196;SDS011;36594;45.192;5.722;2023-02-01T01:51:17;1.80;;;1.70;;
34196;SDS011;36594;45.192;5.722;2023-02-01T01:54:11;1.92;;;1.82;;
34196;SDS011;36594;45.192;5.722;2023-02-01T01:57:14;1.90;;;1.80;;
34196;SDS011;36594;45.192;5.722;2023-02-01T02:00:05;2.37;;;1.80;;
34196;SDS011;36594;45.192;5.722;2023-02-01T02:03:00;1.92;;;1.82;;
34196;SDS011;36594;45.192;5.722;2023-02-01T02:05:53;2.02;;;1.85;;
34196;SDS011;36594;45.192;5.722;2023-02-01T02:08:44;1.90;;;1.80;;
34196;SDS011;36594;45.192;5.722;2023-02-01T02:11:33;1.70;;;1.60;;
34196;SDS011;36594;45.192;5.722;2023-02-01T02:14:21;2.10;;;2.00;;
34196;SDS011;36594;45.192;5.722;2023-02-01T02:20:25;1.85;;;1.75;;
34196;SDS011;36594;45.192;5.722;2023-02-01T02:26:31;1.80;;;1.70;;
34196;SDS011;36594;45.192;5.722;2023-02-01T02:36:16;1.90;;;1.80;;
34196;SDS011;36594;45.192;5.722;2023-02-01T02:42:27;1.90;;;1.80;;
34196;SDS011;36594;45.192;5.722;2023-02-01T02:45:52;1.87;;;1.77;;
34196;SDS011;36594;45.192;5.722;2023-02-01T02:49:05;2.00;;;1.90;;
34196;SDS011;36594;45.192;5.722;2023-02-01T02:52:05;1.87;;;1.77;;
34196;SDS011;36594;45.192;5.722;2023-02-01T02:55:17;1.90;;;1.80;;
34196;SDS011;36594;45.192;5.722;2023-02-01T02:58:07;1.80;;;1.70;;
34196;SDS011;36594;45.192;5.722;2023-02-01T03:01:16;1.97;;;1.87;;
34196;SDS011;36594;45.192;5.722;2023-02-01T03:04:23;2.00;;;1.90;;
34196;SDS011;36594;45.192;5.722;2023-02-01T03:07:13;2.10;;;2.00;;
34196;SDS011;36594;45.192;5.722;2023-02-01T03:10:03;1.80;;;1.70;;
34196;SDS011;36594;45.192;5.722;2023-02-01T03:12:54;1.80;;;1.70;;
34196;SDS011;36594;45.192;5.722;2023-02-01T03:16:26;1.80;;;1.70;;
34196;SDS011;36594;45.192;5.722;2023-02-01T03:19:09;2.00;;;1.90;;
34196;SDS011;36594;45.192;5.722;2023-02-01T03:22:15;1.90;;;1.80;;
34196;SDS011;36594;45.192;5.722;2023-02-01T03:25:16;2.05;;;1.80;;
34196;SDS011;36594;45.192;5.722;2023-02-01T03:28:04;1.90;;;1.80;;
34196;SDS011;36594;45.192;5.722;2023-02-01T03:30:55;1.83;;;1.73;;
34196;SDS011;36594;45.192;5.722;2023-02-01T03:33:44;1.80;;;1.70;;
34196;SDS011;36594;45.192;5.722;2023-02-01T03:36:39;2.08;;;1.98;;
34196;SDS011;36594;45.192;5.722;2023-02-01T03:39:27;1.70;;;1.60;;
34196;SDS011;36594;45.192;5.722;2023-02-01T03:42:22;2.00;;;1.90;;
34196;SDS011;36594;45.192;5.722;2023-02-01T03:45:13;1.70;;;1.60;;
34196;SDS011;36594;45.192;5.722;2023-02-01T03:48:15;1.80;;;1.70;;
34196;SDS011;36594;45.192;5.722;2023-02-01T03:51:05;1.90;;;1.80;;
34196;SDS011;36594;45.192;5.722;2023-02-01T03:53:57;1.80;;;1.70;;
34196;SDS011;36594;45.192;5.722;2023-02-01T03:56:46;1.70;;;1.60;;
34196;SDS011;36594;45.192;5.722;2023-02-01T03:59:41;1.80;;;1.70;;
34196;SDS011;36594;45.192;5.722;2023-02-01T04:02:28;1.90;;;1.80;;
34196;SDS011;36594;45.192;5.722;2023-02-01T04:05:16;1.75;;;1.65;;
34196;SDS011;36594;45.192;5.722;2023-02-01T04:08:12;1.70;;;1.60;;
34196;SDS011;36594;45.192;5.722;2023-02-01T04:11:01;2.00;;;1.90;;
34196;SDS011;36594;45.192;5.722;2023-02-01T04:13:49;1.70;;;1.60;;
34196;SDS011;36594;45.192;5.722;2023-02-01T04:16:38;1.70;;;1.60;;
34196;SDS011;36594;45.192;5.722;2023-02-01T04:19:26;2.05;;;1.90;;
34196;SDS011;36594;45.192;5.722;2023-02-01T04:22:14;1.82;;;1.72;;
34196;SDS011;36594;45.192;5.722;2023-02-01T04:25:03;1.70;;;1.60;;
34196;SDS011;36594;45.192;5.722;2023-02-01T04:27:54;1.90;;;1.80;;
34196;SDS011;36594;45.192;5.722;2023-02-01T04:30:43;1.80;;;1.70;;
34196;SDS011;36594;45.192;5.722;2023-02-01T04:33:32;1.90;;;1.80;;
34196;SDS011;36594;45.192;5.722;2023-02-01T04:36:22;1.80;;;1.70;;
34196;SDS011;36594;45.192;5.722;2023-02-01T04:39:10;1.90;;;1.80;;
34196;SDS011;36594;45.192;5.722;2023-02-01T04:41:59;1.70;;;1.60;;
34196;SDS011;36594;45.192;5.722;2023-02-01T04:44:47;1.72;;;1.62;;
34196;SDS011;36594;45.192;5.722;2023-02-01T04:47:35;1.70;;;1.60;;
34196;SDS011;36594;45.192;5.722;2023-02-01T04:50:24;1.70;;;1.60;;
34196;SDS011;36594;45.192;5.722;2023-02-01T04:53:19;1.80;;;1.70;;
34196;SDS011;36594;45.192;5.722;2023-02-01T04:56:03;1.60;;;1.60;;
34196;SDS011;36594;45.192;5.722;2023-02-01T04:58:52;1.70;;;1.60;;
34196;SDS011;36594;45.192;5.722;2023-02-01T05:01:42;1.62;;;1.52;;
34196;SDS011;36594;45.192;5.722;2023-02-01T05:04:30;1.87;;;1.77;;
34196;SDS011;36594;45.192;5.722;2023-02-01T05:07:19;1.87;;;1.77;;
34196;SDS011;36594;45.192;5.722;2023-02-01T05:10:08;1.60;;;1.50;;
34196;SDS011;36594;45.192;5.722;2023-02-01T05:12:57;1.67;;;1.57;;
34196;SDS011;36594;45.192;5.722;2023-02-01T05:16:03;1.72;;;1.62;;
34196;SDS011;36594;45.192;5.722;2023-02-01T05:18:53;1.55;;;1.47;;
34196;SDS011;36594;45.192;5.722;2023-02-01T05:21:41;1.60;;;1.50;;
34196;SDS011;36594;45.192;5.722;2023-02-01T05:24:29;1.70;;;1.60;;
34196;SDS011;36594;45.192;5.722;2023-02-01T05:27:18;1.63;;;1.53;;
34196;SDS011;36594;45.192;5.722;2023-02-01T05:30:06;1.67;;;1.57;;
34196;SDS011;36594;45.192;5.722;2023-02-01T05:32:55;1.70;;;1.60;;
34196;SDS011;36594;45.192;5.722;2023-02-01T05:35:44;1.70;;;1.60;;
34196;SDS011;36594;45.192;5.722;2023-02-01T05:38:32;1.60;;;1.50;;
34196;SDS011;36594;45.192;5.722;2023-02-01T05:41:20;1.75;;;1.65;;
34196;SDS011;36594;45.192;5.722;2023-02-01T05:44:09;1.70;;;1.60;;
34196;SDS011;36594;45.192;5.722;2023-02-01T05:46:59;1.77;;;1.67;;
34196;SDS011;36594;45.192;5.722;2023-02-01T05:49:47;1.70;;;1.60;;
34196;SDS011;36594;45.192;5.722;2023-02-01T05:52:35;1.90;;;1.80;;
34196;SDS011;36594;45.192;5.722;2023-02-01T05:55:24;1.57;;;1.47;;
34196;SDS011;36594;45.192;5.722;2023-02-01T05:58:12;1.80;;;1.70;;
34196;SDS011;36594;45.192;5.722;2023-02-01T06:01:01;1.60;;;1.50;;
34196;SDS011;36594;45.192;5.722;2023-02-01T06:03:51;1.70;;;1.60;;
34196;SDS011;36594;45.192;5.722;2023-02-01T06:06:39;1.70;;;1.60;;
34196;SDS011;36594;45.192;5.722;2023-02-01T06:09:28;1.80;;;1.60;;
34196;SDS011;36594;45.192;5.722;2023-02-01T06:12:17;1.67;;;1.57;;
34196;SDS011;36594;45.192;5.722;2023-02-01T06:15:05;2.00;;;1.90;;
34196;SDS011;36594;45.192;5.722;2023-02-01T06:17:54;2.10;;;1.90;;
34196;SDS011;36594;45.192;5.722;2023-02-01T06:20:42;2.30;;;2.20;;
34196;SDS011;36594;45.192;5.722;2023-02-01T06:23:31;2.35;;;2.10;;
34196;SDS011;36594;45.192;5.722;2023-02-01T06:26:19;1.98;;;1.87;;
34196;SDS011;36594;45.192;5.722;2023-02-01T06:29:09;1.82;;;1.72;;
34196;SDS011;36594;45.192;5.722;2023-02-01T06:31:57;2.10;;;1.72;;
34196;SDS011;36594;45.192;5.722;2023-02-01T06:34:46;1.80;;;1.70;;
34196;SDS011;36594;45.192;5.722;2023-02-01T06:37:36;1.90;;;1.70;;
34196;SDS011;36594;45.192;5.722;2023-02-01T06:40:25;1.57;;;1.47;;
34196;SDS011;36594;45.192;5.722;2023-02-01T06:43:13;1.70;;;1.60;;
34196;SDS011;36594;45.192;5.722;2023-02-01T06:46:02;1.87;;;1.77;;
34196;SDS011;36594;45.192;5.722;2023-02-01T06:48:53;2.00;;;1.90;;
34196;SDS011;36594;45.192;5.722;2023-02-01T06:51:42;1.97;;;1.87;;
34196;SDS011;36594;45.192;5.722;2023-02-01T06:54:30;1.87;;;1.77;;
34196;SDS011;36594;45.192;5.722;2023-02-01T06:57:20;1.70;;;1.60;;
34196;SDS011;36594;45.192;5.722;2023-02-01T07:00:09;1.70;;;1.60;;
34196;SDS011;36594;45.192;5.722;2023-02-01T07:02:58;1.70;;;1.60;;
34196;SDS011;36594;45.192;5.722;2023-02-01T07:05:46;1.72;;;1.62;;
34196;SDS011;36594;45.192;5.722;2023-02-01T07:08:35;1.80;;;1.70;;
34196;SDS011;36594;45.192;5.722;2023-02-01T07:11:25;2.30;;;1.80;;
34196;SDS011;36594;45.192;5.722;2023-02-01T07:14:14;1.75;;;1.65;;
34196;SDS011;36594;45.192;5.722;2023-02-01T07:17:02;1.72;;;1.62;;
34196;SDS011;36594;45.192;5.722;2023-02-01T07:19:50;1.52;;;1.42;;
34196;SDS011;36594;45.192;5.722;2023-02-01T07:22:38;1.70;;;1.60;;
34196;SDS011;36594;45.192;5.722;2023-02-01T07:25:27;1.75;;;1.65;;
34196;SDS011;36594;45.192;5.722;2023-02-01T07:28:15;1.65;;;1.60;;
34196;SDS011;36594;45.192;5.722;2023-02-01T07:31:07;2.07;;;1.87;;
34196;SDS011;36594;45.192;5.722;2023-02-01T07:33:57;1.80;;;1.60;;
34196;SDS011;36594;45.192;5.722;2023-02-01T07:36:47;2.00;;;1.70;;
34196;SDS011;36594;45.192;5.722;2023-02-01T07:39:35;1.60;;;1.50;;
34196;SDS011;36594;45.192;5.722;2023-02-01T07:42:24;1.90;;;1.80;;
34196;SDS011;36594;45.192;5.722;2023-02-01T07:45:12;1.45;;;1.45;;
34196;SDS011;36594;45.192;5.722;2023-02-01T07:48:01;1.70;;;1.60;;
34196;SDS011;36594;45.192;5.722;2023-02-01T07:51:04;1.55;;;1.52;;
34196;SDS011;36594;45.192;5.722;2023-02-01T07:53:47;1.80;;;1.70;;
34196;SDS011;36594;45.192;5.722;2023-02-01T07:56:36;1.70;;;1.60;;
34196;SDS011;36594;45.192;5.722;2023-02-01T07:59:24;2.10;;;1.60;;
34196;SDS011;36594;45.192;5.722;2023-02-01T08:02:12;2.00;;;1.80;;
34196;SDS011;36594;45.192;5.722;2023-02-01T08:05:01;1.93;;;1.83;;
34196;SDS011;36594;45.192;5.722;2023-02-01T08:07:49;2.10;;;1.55;;
34196;SDS011;36594;45.192;5.722;2023-02-01T08:10:38;1.75;;;1.65;;
34196;SDS011;36594;45.192;5.722;2023-02-01T08:13:27;1.75;;;1.65;;
34196;SDS011;36594;45.192;5.722;2023-02-01T08:16:16;1.65;;;1.55;;
34196;SDS011;36594;45.192;5.722;2023-02-01T08:19:07;2.52;;;1.80;;
34196;SDS011;36594;45.192;5.722;2023-02-01T08:21:55;2.98;;;1.70;;
34196;SDS011;36594;45.192;5.722;2023-02-01T08:24:47;1.60;;;1.50;;
34196;SDS011;36594;45.192;5.722;2023-02-01T08:27:35;1.65;;;1.55;;
34196;SDS011;36594;45.192;5.722;2023-02-01T08:30:24;1.72;;;1.62;;
34196;SDS011;36594;45.192;5.722;2023-02-01T08:33:14;1.50;;;1.40;;
34196;SDS011;36594;45.192;5.722;2023-02-01T08:36:03;1.60;;;1.55;;
34196;SDS011;36594;45.192;5.722;2023-02-01T08:38:52;1.57;;;1.47;;
34196;SDS011;36594;45.192;5.722;2023-02-01T08:41:41;1.80;;;1.70;;
34196;SDS011;36594;45.192;5.722;2023-02-01T08:44:31;1.85;;;1.75;;
34196;SDS011;36594;45.192;5.722;2023-02-01T08:47:19;2.15;;;1.62;;
34196;SDS011;36594;45.192;5.722;2023-02-01T08:50:09;1.80;;;1.70;;
34196;SDS011;36594;45.192;5.722;2023-02-01T08:52:58;1.82;;;1.72;;
34196;SDS011;36594;45.192;5.722;2023-02-01T08:55:46;1.75;;;1.65;;
34196;SDS011;36594;45.192;5.722;2023-02-01T08:58:35;1.70;;;1.60;;
34196;SDS011;36594;45.192;5.722;2023-02-01T09:01:24;1.50;;;1.40;;
34196;SDS011;36594;45.192;5.722;2023-02-01T09:04:13;1.52;;;1.40;;
34196;SDS011;36594;45.192;5.722;2023-02-01T09:07:01;1.70;;;1.60;;
34196;SDS011;36594;45.192;5.722;2023-02-01T09:09:49;1.70;;;1.60;;
34196;SDS011;36594;45.192;5.722;2023-02-01T09:12:39;1.70;;;1.60;;
34196;SDS011;36594;45.192;5.722;2023-02-01T09:15:27;1.52;;;1.42;;
34196;SDS011;36594;45.192;5.722;2023-02-01T09:18:16;2.42;;;1.70;;
34196;SDS011;36594;45.192;5.722;2023-02-01T09:21:04;1.55;;;1.45;;
34196;SDS011;36594;45.192;5.722;2023-02-01T09:23:54;1.80;;;1.70;;
34196;SDS011;36594;45.192;5.722;2023-02-01T09:26:42;1.75;;;1.65;;
34196;SDS011;36594;45.192;5.722;2023-02-01T09:29:31;1.77;;;1.67;;
34196;SDS011;36594;45.192;5.722;2023-02-01T09:32:20;1.57;;;1.55;;
34196;SDS011;36594;45.192;5.722;2023-02-01T09:35:10;1.55;;;1.45;;
34196;SDS011;36594;45.192;5.722;2023-02-01T09:37:59;1.62;;;1.52;;
34196;SDS011;36594;45.192;5.722;2023-02-01T09:40:47;1.80;;;1.70;;
34196;SDS011;36594;45.192;5.722;2023-02-01T09:43:38;1.60;;;1.50;;
34196;SDS011;36594;45.192;5.722;2023-02-01T09:46:36;1.57;;;1.50;;
34196;SDS011;36594;45.192;5.722;2023-02-01T09:49:27;1.80;;;1.60;;
34196;SDS011;36594;45.192;5.722;2023-02-01T09:52:19;1.80;;;1.70;;
34196;SDS011;36594;45.192;5.722;2023-02-01T09:55:20;1.90;;;1.80;;
34196;SDS011;36594;45.192;5.722;2023-02-01T09:58:20;1.60;;;1.50;;
34196;SDS011;36594;45.192;5.722;2023-02-01T10:01:18;3.53;;;1.83;;
34196;SDS011;36594;45.192;5.722;2023-02-01T10:04:12;1.95;;;1.70;;
34196;SDS011;36594;45.192;5.722;2023-02-01T10:07:05;1.70;;;1.60;;
34196;SDS011;36594;45.192;5.722;2023-02-01T10:09:58;1.62;;;1.52;;
34196;SDS011;36594;45.192;5.722;2023-02-01T10:16:00;2.10;;;1.75;;
34196;SDS011;36594;45.192;5.722;2023-02-01T10:19:01;2.10;;;1.80;;
34196;SDS011;36594;45.192;5.722;2023-02-01T10:22:02;1.90;;;1.80;;
34196;SDS011;36594;45.192;5.722;2023-02-01T10:25:16;1.90;;;1.80;;
34196;SDS011;36594;45.192;5.722;2023-02-01T10:28:02;2.08;;;1.98;;
34196;SDS011;36594;45.192;5.722;2023-02-01T10:30:52;1.70;;;1.60;;
34196;SDS011;36594;45.192;5.722;2023-02-01T10:33:44;1.95;;;1.85;;
34196;SDS011;36594;45.192;5.722;2023-02-01T10:36:35;2.42;;;2.10;;
34196;SDS011;36594;45.192;5.722;2023-02-01T10:39:25;1.90;;;1.80;;
34196;SDS011;36594;45.192;5.722;2023-02-01T10:42:14;2.05;;;1.95;;
34196;SDS011;36594;45.192;5.722;2023-02-01T10:45:05;2.05;;;1.95;;
34196;SDS011;36594;45.192;5.722;2023-02-01T10:47:56;2.67;;;1.90;;
34196;SDS011;36594;45.192;5.722;2023-02-01T10:50:49;2.20;;;2.00;;
34196;SDS011;36594;45.192;5.722;2023-02-01T10:56:36;2.10;;;2.00;;
34196;SDS011;36594;45.192;5.722;2023-02-01T10:59:25;2.08;;;1.87;;
34196;SDS011;36594;45.192;5.722;2023-02-01T11:02:19;2.90;;;2.17;;
34196;SDS011;36594;45.192;5.722;2023-02-01T11:05:18;2.17;;;2.00;;
34196;SDS011;36594;45.192;5.722;2023-02-01T11:08:12;2.45;;;2.25;;
34196;SDS011;36594;45.192;5.722;2023-02-01T11:11:01;2.30;;;2.20;;
34196;SDS011;36594;45.192;5.722;2023-02-01T11:13:57;2.52;;;2.30;;
34196;SDS011;36594;45.192;5.722;2023-02-01T11:16:48;3.00;;;2.15;;
34196;SDS011;36594;45.192;5.722;2023-02-01T11:19:38;2.35;;;2.10;;
34196;SDS011;36594;45.192;5.722;2023-02-01T11:22:28;2.20;;;2.00;;
34196;SDS011;36594;45.192;5.722;2023-02-01T11:25:17;2.27;;;2.10;;
34196;SDS011;36594;45.192;5.722;2023-02-01T11:28:06;3.08;;;2.30;;
34196;SDS011;36594;45.192;5.722;2023-02-01T11:30:56;2.50;;;2.30;;
34196;SDS011;36594;45.192;5.722;2023-02-01T11:33:52;2.50;;;2.27;;
34196;SDS011;36594;45.192;5.722;2023-02-01T11:36:41;2.42;;;2.22;;
34196;SDS011;36594;45.192;5.722;2023-02-01T11:39:35;2.40;;;2.02;;
34196;SDS011;36594;45.192;5.722;2023-02-01T11:42:24;2.25;;;2.15;;
34196;SDS011;36594;45.192;5.722;2023-02-01T11:45:16;2.35;;;2.15;;
34196;SDS011;36594;45.192;5.722;2023-02-01T11:48:15;2.25;;;2.10;;
34196;SDS011;36594;45.192;5.722;2023-02-01T11:54:08;2.42;;;2.22;;
34196;SDS011;36594;45.192;5.722;2023-02-01T11:57:06;2.15;;;2.00;;
34196;SDS011;36594;45.192;5.722;2023-02-01T12:00:06;2.63;;;2.43;;
34196;SDS011;36594;45.192;5.722;2023-02-01T12:09:08;2.30;;;2.20;;
34196;SDS011;36594;45.192;5.722;2023-02-01T12:15:17;2.47;;;2.27;;
34196;SDS011;36594;45.192;5.722;2023-02-01T12:33:29;2.50;;;2.30;;
34196;SDS011;36594;45.192;5.722;2023-02-01T12:39:39;2.15;;;2.00;;
34196;SDS011;36594;45.192;5.722;2023-02-01T12:42:43;2.40;;;2.20;;
34196;SDS011;36594;45.192;5.722;2023-02-01T12:46:16;2.45;;;2.20;;
34196;SDS011;36594;45.192;5.722;2023-02-01T12:52:25;2.30;;;2.10;;
34196;SDS011;36594;45.192;5.722;2023-02-01T12:55:21;2.33;;;2.12;;
34196;SDS011;36594;45.192;5.722;2023-02-01T12:58:22;2.40;;;2.17;;
34196;SDS011;36594;45.192;5.722;2023-02-01T13:01:14;2.08;;;1.98;;
34196;SDS011;36594;45.192;5.722;2023-02-01T13:04:25;2.30;;;2.02;;
34196;SDS011;36594;45.192;5.722;2023-02-01T13:07:22;2.12;;;2.02;;
34196;SDS011;36594;45.192;5.722;2023-02-01T13:10:23;2.67;;;2.22;;
34196;SDS011;36594;45.192;5.722;2023-02-01T13:13:18;2.25;;;2.05;;
34196;SDS011;36594;45.192;5.722;2023-02-01T13:16:10;2.35;;;2.15;;
34196;SDS011;36594;45.192;5.722;2023-02-01T13:19:19;2.12;;;2.02;;
34196;SDS011;36594;45.192;5.722;2023-02-01T13:22:17;2.50;;;2.30;;
34196;SDS011;36594;45.192;5.722;2023-02-01T13:25:04;2.20;;;2.10;;
34196;SDS011;36594;45.192;5.722;2023-02-01T13:27:54;2.40;;;2.20;;
34196;SDS011;36594;45.192;5.722;2023-02-01T13:40:37;2.30;;;2.10;;
34196;SDS011;36594;45.192;5.722;2023-02-01T13:43:33;2.10;;;2.00;;
34196;SDS011;36594;45.192;5.722;2023-02-01T13:46:24;2.10;;;2.00;;
34196;SDS011;36594;45.192;5.722;2023-02-01T13:49:23;2.05;;;1.95;;
34196;SDS011;36594;45.192;5.722;2023-02-01T13:52:25;2.47;;;2.15;;
34196;SDS011;36594;45.192;5.722;2023-02-01T14:07:30;2.37;;;2.17;;
34196;SDS011;36594;45.192;5.722;2023-02-01T14:13:43;2.00;;;1.80;;
34196;SDS011;36594;45.192;5.722;2023-02-01T14:16:32;2.33;;;2.12;;
34196;SDS011;36594;45.192;5.722;2023-02-01T14:19:25;2.17;;;2.00;;
34196;SDS011;36594;45.192;5.722;2023-02-01T14:25:21;2.27;;;2.10;;
34196;SDS011;36594;45.192;5.722;2023-02-01T14:28:25;2.25;;;2.05;;
34196;SDS011;36594;45.192;5.722;2023-02-01T14:31:14;2.10;;;1.90;;
34196;SDS011;36594;45.192;5.722;2023-02-01T14:34:21;1.90;;;1.80;;
34196;SDS011;36594;45.192;5.722;2023-02-01T14:37:23;2.22;;;1.95;;
34196;SDS011;36594;45.192;5.722;2023-02-01T14:43:03;2.25;;;2.08;;
34196;SDS011;36594;45.192;5.722;2023-02-01T14:45:52;1.90;;;1.80;;
34196;SDS011;36594;45.192;5.722;2023-02-01T14:48:42;1.80;;;1.70;;
34196;SDS011;36594;45.192;5.722;2023-02-01T14:51:33;1.90;;;1.80;;
34196;SDS011;36594;45.192;5.722;2023-02-01T14:54:23;2.00;;;1.85;;
34196;SDS011;36594;45.192;5.722;2023-02-01T14:57:15;2.03;;;1.83;;
34196;SDS011;36594;45.192;5.722;2023-02-01T15:00:28;2.30;;;2.10;;
34196;SDS011;36594;45.192;5.722;2023-02-01T15:06:29;1.60;;;1.50;;
34196;SDS011;36594;45.192;5.722;2023-02-01T15:18:14;1.90;;;1.70;;
34196;SDS011;36594;45.192;5.722;2023-02-01T15:21:01;1.87;;;1.77;;
34196;SDS011;36594;45.192;5.722;2023-02-01T15:23:50;1.80;;;1.70;;
34196;SDS011;36594;45.192;5.722;2023-02-01T15:26:41;1.80;;;1.70;;
34196;SDS011;36594;45.192;5.722;2023-02-01T15:29:29;1.65;;;1.55;;
34196;SDS011;36594;45.192;5.722;2023-02-01T15:32:32;1.77;;;1.67;;
34196;SDS011;36594;45.192;5.722;2023-02-01T15:35:36;1.60;;;1.50;;
34196;SDS011;36594;45.192;5.722;2023-02-01T15:38:34;2.42;;;1.80;;
34196;SDS011;36594;45.192;5.722;2023-02-01T15:41:30;1.82;;;1.72;;
34196;SDS011;36594;45.192;5.722;2023-02-01T15:44:20;1.70;;;1.60;;
34196;SDS011;36594;45.192;5.722;2023-02-01T15:47:33;1.77;;;1.67;;
34196;SDS011;36594;45.192;5.722;2023-02-01T15:50:04;1.70;;;1.60;;
34196;SDS011;36594;45.192;5.722;2023-02-01T15:52:54;1.70;;;1.60;;
34196;SDS011;36594;45.192;5.722;2023-02-01T15:55:43;1.40;;;1.40;;
34196;SDS011;36594;45.192;5.722;2023-02-01T15:58:33;1.40;;;1.40;;
34196;SDS011;36594;45.192;5.722;2023-02-01T16:01:22;2.17;;;1.40;;
34196;SDS011;36594;45.192;5.722;2023-02-01T16:07:35;1.60;;;1.50;;
34196;SDS011;36594;45.192;5.722;2023-02-01T16:10:20;1.60;;;1.50;;
34196;SDS011;36594;45.192;5.722;2023-02-01T16:13:10;1.70;;;1.60;;
34196;SDS011;36594;45.192;5.722;2023-02-01T16:15:59;1.60;;;1.50;;
34196;SDS011;36594;45.192;5.722;2023-02-01T16:18:48;1.70;;;1.60;;
34196;SDS011;36594;45.192;5.722;2023-02-01T16:21:37;1.37;;;1.33;;
34196;SDS011;36594;45.192;5.722;2023-02-01T16:24:25;1.35;;;1.30;;
34196;SDS011;36594;45.192;5.722;2023-02-01T16:27:13;1.47;;;1.40;;
34196;SDS011;36594;45.192;5.722;2023-02-01T16:30:02;1.37;;;1.30;;
34196;SDS011;36594;45.192;5.722;2023-02-01T16:32:52;1.47;;;1.37;;
34196;SDS011;36594;45.192;5.722;2023-02-01T16:35:49;1.55;;;1.30;;
34196;SDS011;36594;45.192;5.722;2023-02-01T16:38:38;1.45;;;1.35;;
34196;SDS011;36594;45.192;5.722;2023-02-01T16:41:27;1.22;;;1.20;;
34196;SDS011;36594;45.192;5.722;2023-02-01T16:44:15;1.42;;;1.32;;
34196;SDS011;36594;45.192;5.722;2023-02-01T16:47:05;1.20;;;1.20;;
34196;SDS011;36594;45.192;5.722;2023-02-01T16:50:00;1.37;;;1.30;;
34196;SDS011;36594;45.192;5.722;2023-02-01T16:52:48;1.47;;;1.37;;
34196;SDS011;36594;45.192;5.722;2023-02-01T16:55:37;1.20;;;1.20;;
34196;SDS011;36594;45.192;5.722;2023-02-01T16:58:26;1.07;;;1.07;;
34196;SDS011;36594;45.192;5.722;2023-02-01T17:01:16;1.07;;;1.07;;
34196;SDS011;36594;45.192;5.722;2023-02-01T17:04:06;1.15;;;1.15;;
34196;SDS011;36594;45.192;5.722;2023-02-01T17:06:54;1.12;;;1.10;;
34196;SDS011;36594;45.192;5.722;2023-02-01T17:09:45;1.35;;;1.25;;
34196;SDS011;36594;45.192;5.722;2023-02-01T17:12:33;1.00;;;1.00;;
34196;SDS011;36594;45.192;5.722;2023-02-01T17:15:23;1.33;;;1.10;;
34196;SDS011;36594;45.192;5.722;2023-02-01T17:18:14;1.05;;;1.05;;
34196;SDS011;36594;45.192;5.722;2023-02-01T17:21:05;1.17;;;1.15;;
34196;SDS011;36594;45.192;5.722;2023-02-01T17:23:54;0.95;;;0.95;;
34196;SDS011;36594;45.192;5.722;2023-02-01T17:26:44;2.60;;;1.10;;
34196;SDS011;36594;45.192;5.722;2023-02-01T17:29:35;1.15;;;1.10;;
34196;SDS011;36594;45.192;5.722;2023-02-01T17:32:24;1.02;;;1.02;;
34196;SDS011;36594;45.192;5.722;2023-02-01T17:35:21;2.00;;;1.12;;
34196;SDS011;36594;45.192;5.722;2023-02-01T17:38:10;1.00;;;1.00;;
34196;SDS011;36594;45.192;5.722;2023-02-01T17:40:58;1.25;;;1.10;;
34196;SDS011;36594;45.192;5.722;2023-02-01T17:43:47;0.90;;;0.90;;
34196;SDS011;36594;45.192;5.722;2023-02-01T17:46:37;1.40;;;1.30;;
34196;SDS011;36594;45.192;5.722;2023-02-01T17:49:25;1.07;;;1.07;;
34196;SDS011;36594;45.192;5.722;2023-02-01T17:52:17;1.10;;;1.10;;
34196;SDS011;36594;45.192;5.722;2023-02-01T17:55:25;1.00;;;1.00;;
34196;SDS011;36594;45.192;5.722;2023-02-01T17:58:03;0.98;;;0.98;;
34196;SDS011;36594;45.192;5.722;2023-02-01T18:00:51;1.20;;;1.10;;
34196;SDS011;36594;45.192;5.722;2023-02-01T18:03:40;1.37;;;0.90;;
34196;SDS011;36594;45.192;5.722;2023-02-01T18:06:31;0.80;;;0.80;;
34196;SDS011;36594;45.192;5.722;2023-02-01T18:09:21;1.10;;;0.90;;
34196;SDS011;36594;45.192;5.722;2023-02-01T18:12:20;0.82;;;0.82;;
34196;SDS011;36594;45.192;5.722;2023-02-01T18:15:21;0.90;;;0.90;;
34196;SDS011;36594;45.192;5.722;2023-02-01T18:18:12;1.00;;;1.00;;
34196;SDS011;36594;45.192;5.722;2023-02-01T18:21:00;1.07;;;1.00;;
34196;SDS011;36594;45.192;5.722;2023-02-01T18:23:50;0.80;;;0.80;;
34196;SDS011;36594;45.192;5.722;2023-02-01T18:26:38;0.93;;;0.93;;
34196;SDS011;36594;45.192;5.722;2023-02-01T18:29:27;0.90;;;0.90;;
34196;SDS011;36594;45.192;5.722;2023-02-01T18:32:15;0.95;;;0.95;;
34196;SDS011;36594;45.192;5.722;2023-02-01T18:38:13;0.97;;;0.97;;
34196;SDS011;36594;45.192;5.722;2023-02-01T18:41:01;0.90;;;0.90;;
34196;SDS011;36594;45.192;5.722;2023-02-01T18:43:51;0.93;;;0.93;;
34196;SDS011;36594;45.192;5.722;2023-02-01T18:46:40;0.98;;;0.98;;
34196;SDS011;36594;45.192;5.722;2023-02-01T18:49:29;1.30;;;0.90;;
34196;SDS011;36594;45.192;5.722;2023-02-01T18:52:18;1.10;;;0.90;;
34196;SDS011;36594;45.192;5.722;2023-02-01T18:55:06;0.80;;;0.80;;
34196;SDS011;36594;45.192;5.722;2023-02-01T18:57:56;1.70;;;0.80;;
34196;SDS011;36594;45.192;5.722;2023-02-01T19:00:45;0.80;;;0.80;;